createdAt,value
2022-11-21T00:01:20.735Z,-2.02
2022-11-21T00:03:48.324Z,-1.94
2022-11-21T00:06:16.157Z,-1.86
2022-11-21T00:08:43.611Z,-1.90
2022-11-21T00:11:10.872Z,-1.83
2022-11-21T00:13:38.467Z,-1.82
2022-11-21T00:16:07.585Z,-1.87
2022-11-21T00:18:35.560Z,-1.77
2022-11-21T00:21:13.986Z,-1.67
2022-11-21T00:23:41.501Z,-1.72
2022-11-21T00:26:10.043Z,-1.67
2022-11-21T00:28:37.593Z,-1.66
2022-11-21T00:31:05.703Z,-1.56
2022-11-21T00:33:36.904Z,-1.57
2022-11-21T00:36:08.586Z,-1.61
2022-11-21T00:38:35.826Z,-1.59
2022-11-21T00:41:03.040Z,-1.49
2022-11-21T00:43:30.197Z,-1.50
2022-11-21T00:45:58.629Z,-1.58
2022-11-21T00:48:25.776Z,-1.54
2022-11-21T00:50:53.233Z,-1.51
2022-11-21T00:53:20.453Z,-1.44
2022-11-21T00:55:47.696Z,-1.38
2022-11-21T00:58:14.886Z,-1.35
2022-11-21T01:00:42.183Z,-1.52
2022-11-21T01:03:09.605Z,-1.54
2022-11-21T01:05:36.771Z,-1.53
2022-11-21T01:08:04.110Z,-1.50
2022-11-21T01:10:31.293Z,-1.54
2022-11-21T01:12:58.499Z,-1.53
2022-11-21T01:15:25.680Z,-1.47
2022-11-21T01:17:53.226Z,-1.41
2022-11-21T01:20:20.447Z,-1.34
2022-11-21T01:22:47.621Z,-1.37
2022-11-21T01:25:14.886Z,-1.34
2022-11-21T01:27:42.356Z,-1.36
2022-11-21T01:30:10.393Z,-1.39
2022-11-21T01:32:37.561Z,-1.43
2022-11-21T01:35:05.209Z,-1.46
2022-11-21T01:37:32.436Z,-1.48
2022-11-21T01:39:59.617Z,-1.48
2022-11-21T01:42:26.871Z,-1.39
2022-11-21T01:44:54.712Z,-1.37
2022-11-21T01:47:22.777Z,-1.40
2022-11-21T01:49:50.869Z,-1.46
2022-11-21T01:52:28.239Z,-1.41
2022-11-21T01:55:05.290Z,-1.44
2022-11-21T01:57:37.817Z,-1.48
2022-11-21T02:00:21.978Z,-1.51
2022-11-21T02:03:00.836Z,-1.58
2022-11-21T02:05:30.741Z,-1.59
2022-11-21T02:08:02.303Z,-1.59
2022-11-21T02:10:29.582Z,-1.51
2022-11-21T02:12:58.777Z,-1.58
2022-11-21T02:15:28.043Z,-1.57
2022-11-21T02:17:55.189Z,-1.41
2022-11-21T02:20:25.300Z,-1.47
2022-11-21T02:23:19.364Z,-1.41
2022-11-21T02:25:46.607Z,-1.36
2022-11-21T02:28:16.710Z,-1.22
2022-11-21T02:30:44.207Z,-1.21
2022-11-21T02:33:12.368Z,-1.29
2022-11-21T02:35:39.893Z,-1.32
2022-11-21T02:38:18.293Z,-1.42
2022-11-21T02:40:55.114Z,-1.35
2022-11-21T02:43:28.618Z,-1.23
2022-11-21T02:45:56.227Z,-1.17
2022-11-21T02:48:23.407Z,-1.19
2022-11-21T02:50:50.663Z,-1.09
2022-11-21T02:53:19.212Z,-1.03
2022-11-21T02:55:46.765Z,-1.14
2022-11-21T02:58:14.576Z,-1.09
2022-11-21T03:00:42.823Z,-1.05
2022-11-21T03:03:10.409Z,-1.04
2022-11-21T03:05:38.389Z,-1.02
2022-11-21T03:08:05.956Z,-0.98
2022-11-21T03:10:33.293Z,-0.94
2022-11-21T03:13:03.248Z,-0.95
2022-11-21T03:15:32.519Z,-0.91
2022-11-21T03:18:02.663Z,-1.12
2022-11-21T03:20:31.072Z,-1.10
2022-11-21T03:22:58.395Z,-1.08
2022-11-21T03:25:25.662Z,-1.02
2022-11-21T03:27:53.806Z,-1.03
2022-11-21T03:30:22.204Z,-1.07
2022-11-21T03:32:49.427Z,-1.07
2022-11-21T03:35:16.831Z,-1.02
2022-11-21T03:37:44.034Z,-0.99
2022-11-21T03:40:11.869Z,-1.02
2022-11-21T03:42:39.058Z,-1.18
2022-11-21T03:45:06.738Z,-1.41
2022-11-21T03:47:33.935Z,-1.39
2022-11-21T03:50:01.132Z,-1.42
2022-11-21T03:52:28.361Z,-1.42
2022-11-21T03:54:55.518Z,-1.57
2022-11-21T03:57:22.763Z,-1.49
2022-11-21T03:59:49.931Z,-1.42
2022-11-21T04:02:17.141Z,-1.29
2022-11-21T04:04:44.324Z,-1.19
2022-11-21T04:07:11.589Z,-1.13
2022-11-21T04:09:38.829Z,-1.13
2022-11-21T04:12:07.926Z,-1.13
2022-11-21T04:14:35.260Z,-1.20
2022-11-21T04:17:02.508Z,-1.42
2022-11-21T04:19:29.743Z,-1.44
2022-11-21T04:21:56.918Z,-1.30
2022-11-21T04:24:24.191Z,-1.23
2022-11-21T04:26:51.458Z,-1.18
2022-11-21T04:29:18.607Z,-1.12
2022-11-21T04:31:45.790Z,-1.27
2022-11-21T04:34:12.992Z,-1.29
2022-11-21T04:36:40.212Z,-1.49
2022-11-21T04:39:07.399Z,-1.54
2022-11-21T04:41:34.650Z,-1.69
2022-11-21T04:44:01.812Z,-1.71
2022-11-21T04:46:28.996Z,-1.75
2022-11-21T04:48:56.233Z,-1.91
2022-11-21T04:51:23.509Z,-1.88
2022-11-21T04:53:50.670Z,-1.94
2022-11-21T04:56:18.031Z,-1.99
2022-11-21T04:58:45.427Z,-2.08
2022-11-21T05:01:12.760Z,-2.13
2022-11-21T05:03:40.200Z,-2.06
2022-11-21T05:06:07.361Z,-2.05
2022-11-21T05:08:34.576Z,-1.97
2022-11-21T05:11:20.219Z,-1.86
2022-11-21T05:13:47.442Z,-1.75
2022-11-21T05:16:14.656Z,-1.65
2022-11-21T05:18:41.888Z,-1.62
2022-11-21T05:21:09.057Z,-1.51
2022-11-21T05:23:36.301Z,-1.48
2022-11-21T05:26:03.467Z,-1.45
2022-11-21T05:28:30.649Z,-1.39
2022-11-21T05:30:57.798Z,-1.32
2022-11-21T05:33:25.000Z,-1.28
2022-11-21T05:35:52.138Z,-1.26
2022-11-21T05:38:19.327Z,-1.21
2022-11-21T05:40:46.559Z,-1.18
2022-11-21T05:43:32.261Z,-1.17
2022-11-21T05:45:59.572Z,-1.14
2022-11-21T05:48:26.843Z,-1.08
2022-11-21T05:50:54.029Z,-1.05
2022-11-21T05:53:21.263Z,-1.06
2022-11-21T05:55:48.528Z,-1.06
2022-11-21T05:58:15.825Z,-1.12
2022-11-21T06:00:43.155Z,-1.07
2022-11-21T06:03:30.622Z,-0.99
2022-11-21T06:06:01.829Z,-0.95
2022-11-21T06:08:30.219Z,-0.91
2022-11-21T06:10:57.705Z,-0.89
2022-11-21T06:13:25.071Z,-0.91
2022-11-21T06:16:04.317Z,-0.78
2022-11-21T06:18:38.912Z,-0.75
2022-11-21T06:21:12.990Z,-0.76
2022-11-21T06:23:40.356Z,-0.74
2022-11-21T06:26:12.063Z,-0.68
2022-11-21T06:28:40.679Z,-0.74
2022-11-21T06:31:19.642Z,-0.69
2022-11-21T06:33:47.333Z,-0.68
2022-11-21T06:36:16.582Z,-0.65
2022-11-21T06:38:44.701Z,-0.71
2022-11-21T06:41:16.984Z,-0.69
2022-11-21T06:43:44.319Z,-0.65
2022-11-21T06:46:12.332Z,-0.64
2022-11-21T06:48:40.151Z,-0.62
2022-11-21T06:51:09.217Z,-0.58
2022-11-21T06:53:36.501Z,-0.61
2022-11-21T06:56:04.238Z,-0.71
2022-11-21T06:58:32.052Z,-0.69
2022-11-21T07:01:03.111Z,-0.61
2022-11-21T07:03:30.378Z,-0.59
2022-11-21T07:06:01.576Z,-0.60
2022-11-21T07:08:29.495Z,-0.56
2022-11-21T07:11:23.754Z,-0.68
2022-11-21T07:13:48.157Z,-0.69
2022-11-21T07:16:15.483Z,-0.71
2022-11-21T07:18:43.435Z,-0.86
2022-11-21T07:21:10.952Z,-0.94
2022-11-21T07:23:38.271Z,-0.95
2022-11-21T07:26:07.272Z,-0.96
2022-11-21T07:28:35.138Z,-0.93
2022-11-21T07:31:08.482Z,-0.99
2022-11-21T07:33:37.383Z,-0.96
2022-11-21T07:36:05.065Z,-1.02
2022-11-21T07:38:32.321Z,-1.05
2022-11-21T07:40:59.568Z,-1.01
2022-11-21T07:43:26.908Z,-0.98
2022-11-21T07:45:54.109Z,-0.91
2022-11-21T07:48:21.397Z,-1.00
2022-11-21T07:50:48.582Z,-0.89
2022-11-21T07:53:15.873Z,-0.81
2022-11-21T07:55:43.038Z,-0.92
2022-11-21T07:58:12.864Z,-0.93
2022-11-21T08:00:43.102Z,-0.93
2022-11-21T08:03:12.073Z,-0.85
2022-11-21T08:05:43.897Z,-1.15
2022-11-21T08:08:12.845Z,-1.00
2022-11-21T08:10:44.428Z,-0.87
2022-11-21T08:13:12.134Z,-0.78
2022-11-21T08:15:39.503Z,-0.87
2022-11-21T08:18:11.193Z,-0.72
2022-11-21T08:20:38.858Z,-0.75
2022-11-21T08:23:06.620Z,-0.60
2022-11-21T08:25:36.382Z,-0.55
2022-11-21T08:28:03.641Z,-0.55
2022-11-21T08:30:31.437Z,-0.56
2022-11-21T08:32:59.264Z,-0.57
2022-11-21T08:35:27.068Z,-0.64
2022-11-21T08:38:01.509Z,-0.64
2022-11-21T08:40:30.428Z,-0.73
2022-11-21T08:43:03.930Z,-0.65
2022-11-21T08:45:31.444Z,-0.66
2022-11-21T08:47:58.897Z,-0.81
2022-11-21T08:50:28.007Z,-0.82
2022-11-21T08:53:01.449Z,-0.84
2022-11-21T08:55:29.018Z,-0.69
2022-11-21T08:57:56.219Z,-0.88
2022-11-21T09:00:23.622Z,-0.78
2022-11-21T09:02:50.864Z,-0.72
2022-11-21T09:05:18.198Z,-0.75
2022-11-21T09:07:45.599Z,-0.75
2022-11-21T09:10:12.915Z,-0.94
2022-11-21T09:12:40.151Z,-0.72
2022-11-21T09:15:28.008Z,-0.76
2022-11-21T09:18:12.997Z,-0.75
2022-11-21T09:20:42.368Z,-0.76
2022-11-21T09:23:10.722Z,-0.78
2022-11-21T09:25:37.976Z,-0.71
2022-11-21T09:28:07.179Z,-0.78
2022-11-21T09:30:34.728Z,-0.77
2022-11-21T09:33:06.950Z,-0.77
2022-11-21T09:35:34.215Z,-0.75
2022-11-21T09:38:01.665Z,-0.65
2022-11-21T09:40:33.680Z,-0.62
2022-11-21T09:43:27.735Z,-0.47
2022-11-21T09:46:13.923Z,-0.34
2022-11-21T09:48:46.935Z,-0.39
2022-11-21T09:51:17.175Z,-0.27
2022-11-21T09:53:52.202Z,-0.33
2022-11-21T09:56:20.060Z,-0.27
2022-11-21T09:59:03.338Z,-0.27
2022-11-21T10:01:30.784Z,-0.24
2022-11-21T10:03:58.129Z,-0.33
2022-11-21T10:06:31.785Z,-0.29
2022-11-21T10:09:18.661Z,-0.10
2022-11-21T10:12:32.896Z,-0.11
2022-11-21T10:15:40.934Z,-0.09
2022-11-21T10:18:17.745Z,-0.05
2022-11-21T10:21:07.230Z,-0.04
2022-11-21T10:23:40.922Z,-0.19
2022-11-21T10:26:19.704Z,-0.11
2022-11-21T10:28:57.130Z,-0.02
2022-11-21T10:31:25.325Z,0.07
2022-11-21T10:33:53.998Z,-0.09
2022-11-21T10:36:39.661Z,-0.08
2022-11-21T10:39:14.741Z,-0.01
2022-11-21T10:42:04.630Z,0.07
2022-11-21T10:44:50.887Z,0.16
2022-11-21T10:47:30.069Z,0.29
2022-11-21T10:50:10.203Z,0.30
2022-11-21T10:52:56.800Z,0.30
2022-11-21T10:55:24.013Z,0.28
2022-11-21T10:57:52.339Z,0.36
2022-11-21T11:00:27.239Z,0.30
2022-11-21T11:02:57.462Z,0.30
2022-11-21T11:06:02.679Z,0.33
2022-11-21T11:08:53.149Z,0.41
2022-11-21T11:11:25.732Z,0.46
2022-11-21T11:14:03.010Z,0.52
2022-11-21T11:16:41.376Z,0.50
2022-11-21T11:19:24.355Z,0.55
2022-11-21T11:21:57.191Z,0.43
2022-11-21T11:24:26.966Z,0.59
2022-11-21T11:27:01.168Z,0.68
2022-11-21T11:29:30.736Z,0.64
2022-11-21T11:32:06.389Z,0.43
2022-11-21T11:34:38.533Z,0.44
2022-11-21T11:37:15.255Z,0.39
2022-11-21T11:40:04.111Z,0.13
2022-11-21T11:43:08.279Z,0.30
2022-11-21T11:46:30.472Z,0.25
2022-11-21T11:49:23.580Z,0.41
2022-11-21T11:52:01.129Z,0.53
2022-11-21T11:54:34.928Z,0.61
2022-11-21T11:57:04.862Z,0.65
2022-11-21T11:59:39.506Z,0.65
2022-11-21T12:02:15.853Z,0.71
2022-11-21T12:04:57.954Z,0.67
2022-11-21T12:11:25.075Z,0.72
2022-11-21T12:13:55.507Z,0.83
2022-11-21T12:16:24.644Z,0.92
2022-11-21T12:19:00.572Z,0.98
2022-11-21T12:21:28.983Z,0.96
2022-11-21T12:23:58.331Z,0.98
2022-11-21T12:26:35.207Z,1.04
2022-11-21T12:29:17.050Z,1.06
2022-11-21T12:32:21.100Z,0.86
2022-11-21T12:35:10.307Z,0.84
2022-11-21T12:38:01.950Z,0.78
2022-11-21T12:40:57.403Z,0.91
2022-11-21T12:43:57.558Z,0.96
2022-11-21T12:46:58.550Z,0.81
2022-11-21T12:49:56.261Z,0.99
2022-11-21T12:52:52.046Z,0.97
2022-11-21T12:55:35.083Z,0.90
2022-11-21T12:58:27.099Z,0.74
2022-11-21T13:01:38.085Z,0.78
2022-11-21T13:04:26.871Z,0.67
2022-11-21T13:06:54.775Z,0.70
2022-11-21T13:09:23.916Z,0.69
2022-11-21T13:12:12.923Z,0.69
2022-11-21T13:14:51.999Z,0.54
2022-11-21T13:17:25.345Z,0.53
2022-11-21T13:20:01.073Z,0.63
2022-11-21T13:22:37.145Z,0.46
2022-11-21T13:25:28.386Z,0.47
2022-11-21T13:27:55.687Z,0.49
2022-11-21T13:30:24.339Z,0.65
2022-11-21T13:32:55.899Z,0.77
2022-11-21T13:35:46.207Z,0.69
2022-11-21T13:38:13.385Z,0.54
2022-11-21T13:41:04.258Z,0.48
2022-11-21T13:43:33.820Z,0.45
2022-11-21T13:46:01.938Z,0.41
2022-11-21T13:48:31.939Z,0.29
2022-11-21T13:51:14.329Z,0.17
2022-11-21T13:54:14.563Z,0.18
2022-11-21T13:57:05.861Z,0.41
2022-11-21T13:59:58.247Z,0.44
2022-11-21T14:02:50.830Z,0.55
2022-11-21T14:05:48.776Z,0.56
2022-11-21T14:08:22.248Z,0.26
2022-11-21T14:10:51.616Z,0.17
2022-11-21T14:13:23.367Z,0.02
2022-11-21T14:16:13.680Z,-0.02
2022-11-21T14:18:43.681Z,-0.08
2022-11-21T14:21:26.471Z,-0.02
2022-11-21T14:24:06.649Z,0.03
2022-11-21T14:26:40.415Z,-0.02
2022-11-21T14:29:18.070Z,-0.04
2022-11-21T14:31:47.292Z,-0.09
2022-11-21T14:34:23.602Z,-0.29
2022-11-21T14:36:50.843Z,-0.45
2022-11-21T14:42:10.631Z,-0.34
2022-11-21T14:44:38.019Z,-0.46
2022-11-21T14:47:25.161Z,-0.37
2022-11-21T14:49:55.557Z,-0.38
2022-11-21T14:52:29.214Z,-0.37
2022-11-21T14:57:53.029Z,-0.44
2022-11-21T15:00:57.993Z,-0.58
2022-11-21T15:03:22.307Z,-0.57
2022-11-21T15:06:08.616Z,-0.56
2022-11-21T15:09:39.502Z,-0.71
2022-11-21T15:11:27.884Z,-0.80
2022-11-21T15:14:14.806Z,-0.76
2022-11-21T15:16:43.818Z,-0.81
2022-11-21T15:19:11.283Z,-0.74
2022-11-21T15:21:46.146Z,-0.87
2022-11-21T15:24:29.590Z,-0.98
2022-11-21T15:26:57.293Z,-1.05
2022-11-21T15:29:24.776Z,-1.00
2022-11-21T15:32:16.257Z,-1.05
2022-11-21T15:34:44.283Z,-1.16
2022-11-21T15:37:18.463Z,-1.31
2022-11-21T15:39:48.392Z,-1.37
2022-11-21T15:42:33.805Z,-1.43
2022-11-21T15:45:23.913Z,-1.55
2022-11-21T15:47:51.119Z,-1.61
2022-11-21T15:50:18.633Z,-1.78
2022-11-21T15:52:48.193Z,-1.71
2022-11-21T15:55:20.032Z,-1.71
2022-11-21T15:57:47.199Z,-1.76
2022-11-21T16:00:14.975Z,-1.70
2022-11-21T16:02:42.173Z,-1.78
2022-11-21T16:05:13.949Z,-1.76
2022-11-21T16:07:41.847Z,-1.94
2022-11-21T16:10:16.526Z,-1.92
2022-11-21T16:12:47.081Z,-1.93
2022-11-21T16:15:14.572Z,-1.91
2022-11-21T16:17:41.880Z,-1.94
2022-11-21T16:20:09.377Z,-2.01
2022-11-21T16:22:36.679Z,-2.07
2022-11-21T16:25:04.214Z,-2.11
2022-11-21T16:27:32.699Z,-2.11
2022-11-21T16:29:59.884Z,-2.11
2022-11-21T16:32:27.342Z,-2.14
2022-11-21T16:34:58.381Z,-2.15
2022-11-21T16:37:25.675Z,-2.22
2022-11-21T16:39:52.927Z,-2.35
2022-11-21T16:42:20.483Z,-2.23
2022-11-21T16:44:48.156Z,-2.32
2022-11-21T16:47:15.591Z,-2.30
2022-11-21T16:49:48.479Z,-2.30
2022-11-21T16:52:18.029Z,-2.31
2022-11-21T16:54:45.309Z,-2.24
2022-11-21T16:57:12.487Z,-2.14
2022-11-21T16:59:39.661Z,-2.10
2022-11-21T17:02:06.881Z,-2.06
2022-11-21T17:04:34.612Z,-1.97
2022-11-21T17:07:02.425Z,-1.92
2022-11-21T17:09:29.670Z,-1.89
2022-11-21T17:12:00.102Z,-1.89
2022-11-21T17:14:27.658Z,-1.83
2022-11-21T17:16:55.100Z,-1.77
2022-11-21T17:19:22.423Z,-1.67
2022-11-21T17:21:49.603Z,-1.67
2022-11-21T17:24:17.914Z,-1.68
2022-11-21T17:26:45.092Z,-1.92
2022-11-21T17:29:12.252Z,-1.94
2022-11-21T17:31:41.885Z,-1.79
2022-11-21T17:34:09.123Z,-1.71
2022-11-21T17:36:36.358Z,-1.66
2022-11-21T17:39:03.601Z,-1.69
2022-11-21T17:41:31.012Z,-1.66
2022-11-21T17:43:59.624Z,-1.68
2022-11-21T17:46:27.356Z,-1.63
2022-11-21T17:48:58.445Z,-1.68
2022-11-21T17:51:29.204Z,-1.79
2022-11-21T17:53:56.539Z,-1.80
2022-11-21T17:56:27.839Z,-1.77
2022-11-21T17:58:55.520Z,-1.75
2022-11-21T18:01:23.343Z,-1.94
2022-11-21T18:03:58.855Z,-1.86
2022-11-21T18:06:28.429Z,-1.78
2022-11-21T18:08:58.442Z,-1.86
2022-11-21T18:11:28.515Z,-1.77
2022-11-21T18:13:55.766Z,-1.70
2022-11-21T18:16:26.014Z,-1.69
2022-11-21T18:18:53.707Z,-1.78
2022-11-21T18:21:25.941Z,-1.76
2022-11-21T18:23:54.094Z,-1.77
2022-11-21T18:26:26.761Z,-1.75
2022-11-21T18:29:13.578Z,-1.65
2022-11-21T18:31:44.273Z,-1.61
2022-11-21T18:34:12.411Z,-1.59
2022-11-21T18:36:39.700Z,-1.57
2022-11-21T18:39:14.197Z,-1.64
2022-11-21T18:41:42.324Z,-1.64
2022-11-21T18:44:10.018Z,-1.66
2022-11-21T18:46:38.642Z,-1.57
2022-11-21T18:49:07.760Z,-1.49
2022-11-21T18:51:36.042Z,-1.54
2022-11-21T18:54:08.036Z,-1.55
2022-11-21T18:56:36.289Z,-1.57
2022-11-21T18:59:05.387Z,-1.52
2022-11-21T19:01:33.148Z,-1.52
2022-11-21T19:04:00.521Z,-1.54
2022-11-21T19:06:28.305Z,-1.52
2022-11-21T19:08:57.229Z,-1.50
2022-11-21T19:11:29.018Z,-1.48
2022-11-21T19:13:57.408Z,-1.42
2022-11-21T19:16:26.366Z,-1.44
2022-11-21T19:19:26.482Z,-1.44
2022-11-21T19:21:42.556Z,-1.44
2022-11-21T19:24:13.960Z,-1.50
2022-11-21T19:26:41.593Z,-1.51
2022-11-21T19:29:09.179Z,-1.53
2022-11-21T19:31:41.028Z,-1.48
2022-11-21T19:34:12.183Z,-1.49
2022-11-21T19:36:39.564Z,-1.42
2022-11-21T19:39:06.868Z,-1.55
2022-11-21T19:41:34.457Z,-1.59
2022-11-21T19:44:02.388Z,-1.59
2022-11-21T19:46:31.830Z,-1.53
2022-11-21T19:48:59.769Z,-1.54
2022-11-21T19:51:32.105Z,-1.56
2022-11-21T19:54:01.145Z,-1.48
2022-11-21T19:56:28.358Z,-1.41
2022-11-21T19:58:56.928Z,-1.50
2022-11-21T20:01:26.498Z,-1.44
2022-11-21T20:03:56.830Z,-1.42
2022-11-21T20:06:26.202Z,-1.44
2022-11-21T20:09:02.550Z,-1.42
2022-11-21T20:11:31.084Z,-1.41
2022-11-21T20:13:58.625Z,-1.37
2022-11-21T20:16:31.312Z,-1.20
2022-11-21T20:19:00.920Z,-1.37
2022-11-21T20:21:28.187Z,-1.30
2022-11-21T20:23:55.454Z,-1.14
2022-11-21T20:26:23.619Z,-1.19
2022-11-21T20:28:51.279Z,-1.11
2022-11-21T20:31:20.561Z,-1.18
2022-11-21T20:33:48.840Z,-1.13
2022-11-21T20:36:21.337Z,-1.26
2022-11-21T20:39:17.848Z,-1.22
2022-11-21T20:41:46.584Z,-1.20
2022-11-21T20:47:07.012Z,-1.23
2022-11-21T20:49:34.945Z,-1.25
2022-11-21T20:53:43.923Z,-1.21
2022-11-21T20:54:49.747Z,-1.24
2022-11-21T20:57:16.957Z,-1.14
2022-11-21T20:59:44.181Z,-1.20
2022-11-21T21:02:14.849Z,-1.18
2022-11-21T21:04:42.545Z,-1.18
2022-11-21T21:07:09.851Z,-1.13
2022-11-21T21:09:37.198Z,-0.99
2022-11-21T21:12:05.590Z,-1.06
2022-11-21T21:14:32.883Z,-1.14
2022-11-21T21:17:00.170Z,-1.11
2022-11-21T21:19:27.584Z,-1.07
2022-11-21T21:21:55.086Z,-1.13
2022-11-21T21:24:22.488Z,-1.09
2022-11-21T21:26:50.094Z,-1.07
2022-11-21T21:29:22.804Z,-1.09
2022-11-21T21:31:52.060Z,-1.11
2022-11-21T21:34:21.147Z,-1.06
2022-11-21T21:36:48.768Z,-0.92
2022-11-21T21:39:16.060Z,-1.00
2022-11-21T21:41:47.133Z,-0.99
2022-11-21T21:44:15.101Z,-0.94
2022-11-21T21:46:42.280Z,-0.93
2022-11-21T21:49:09.507Z,-0.95
2022-11-21T21:51:37.470Z,-1.00
2022-11-21T21:54:04.982Z,-1.01
2022-11-21T21:56:32.463Z,-1.00
2022-11-21T21:59:00.146Z,-0.99
2022-11-21T22:01:29.159Z,-0.91
2022-11-21T22:03:58.032Z,-0.91
2022-11-21T22:06:25.474Z,-0.82
2022-11-21T22:08:53.313Z,-0.82
2022-11-21T22:11:23.899Z,-0.65
2022-11-21T22:13:59.386Z,-0.66
2022-11-21T22:16:27.121Z,-0.71
2022-11-21T22:18:54.599Z,-0.67
2022-11-21T22:21:24.481Z,-0.63
2022-11-21T22:26:39.343Z,-0.71
2022-11-21T22:29:06.657Z,-0.72
2022-11-21T22:31:35.079Z,-0.75
2022-11-21T22:34:02.302Z,-0.73
2022-11-21T22:36:29.495Z,-0.74
2022-11-21T22:38:57.056Z,-0.86
2022-11-21T22:41:26.428Z,-0.85
2022-11-21T22:43:57.586Z,-0.94
2022-11-21T22:46:27.100Z,-0.94
2022-11-21T22:48:54.627Z,-0.98
2022-11-21T22:51:23.994Z,-1.00
2022-11-21T22:53:51.194Z,-1.04
2022-11-21T22:56:20.324Z,-1.04
2022-11-21T22:58:48.015Z,-1.13
2022-11-21T23:01:17.666Z,-1.29
2022-11-21T23:03:45.457Z,-1.41
2022-11-21T23:06:12.591Z,-1.51
2022-11-21T23:08:40.600Z,-1.56
2022-11-21T23:11:20.211Z,-1.58
2022-11-21T23:13:49.150Z,-1.56
2022-11-21T23:16:16.855Z,-1.49
2022-11-21T23:18:44.059Z,-1.40
2022-11-21T23:21:12.865Z,-1.31
2022-11-21T23:23:40.215Z,-1.23
2022-11-21T23:26:07.929Z,-1.26
2022-11-21T23:28:35.299Z,-1.24
2022-11-21T23:31:02.558Z,-1.24
2022-11-21T23:33:29.828Z,-1.27
2022-11-21T23:35:57.070Z,-1.18
2022-11-21T23:38:24.310Z,-1.19
2022-11-21T23:40:51.525Z,-1.25
2022-11-21T23:43:19.043Z,-1.19
2022-11-21T23:45:51.186Z,-1.18
2022-11-21T23:48:19.175Z,-1.23
2022-11-21T23:50:47.478Z,-1.36
2022-11-21T23:53:14.931Z,-1.46
2022-11-21T23:55:44.358Z,-1.52
2022-11-21T23:58:12.276Z,-1.62
